• Join FlightAware (Why Join?)
  • Login
  • US Flag 
06:18AM EDT


 

Airport Tracker/Info


-or-


 

Live Flight TrackerFlight Track Log ✈ XOJ538 ✈ 23-Sep-2013 ✈ KHOU - KGSO

Flight Track Log - Related Links

Times and Time Zones

All times are in EDT time to prevent confusion due to time zone crossing. See the XOJ538 flight status page for this flight to view local times or setup timezone preferences in your user account.

Time Position Orientation Groundspeed Altitude Reporting Facility
EDT Latitude Longitude Course Direction KTS MPH feet Rate Location/Type
10:10PM 29.6686 -95.2394 34° Northeast 230 265 3,600  Level Houston Center
10:11PM 29.7061 -95.2489 348° North 253 291 5,300 3,480 Climbing Houston Center
10:11PM 29.7417 -95.2569 349° North 274 315 7,100 3,540 Climbing Houston Center
10:12PM 29.7839 -95.2631 353° North 272 313 8,900 2,640 Climbing Houston Center
10:13PM 29.8700 -95.2594 North 305 351 11,700 2,700 Climbing Houston Center
10:14PM 29.9867 -95.2542 North 331 381 14,400 2,520 Climbing Houston Center
10:15PM 29.9919 -94.6764 54° Northeast  Level FlightAware Approximate
10:15PM 30.0878 -95.2467 North 352 405 16,900  Level Houston Center
10:16PM 30.1789 -95.1783 33° Northeast 374 430 19,000 1,980 Climbing Houston Center
10:17PM 30.2739 -95.1075 33° Northeast 391 450 20,900 1,860 Climbing Houston Center
10:18PM 30.3708 -95.0347 33° Northeast 403 464 22,800 1,800 Climbing Houston Center
10:19PM 30.4686 -94.9581 34° Northeast 413 475 24,600 1,620 Climbing Houston Center
10:20PM 30.5689 -94.8808 34° Northeast 422 486 26,100 1,380 Climbing Houston Center
10:21PM 30.6731 -94.8008 33° Northeast 436 502 27,500 1,200 Climbing Houston Center
10:22PM 30.7794 -94.7172 34° Northeast 452 520 28,600 1,080 Climbing Houston Center
10:23PM 30.8436 -94.5764 62° Northeast 486 559 29,700 1,020 Climbing Houston Center
10:24PM 30.9036 -94.4317 64° Northeast 499 574 30,700 1,080 Climbing Houston Center
10:25PM 30.9767 -94.2561 64° Northeast 507 583 31,900 1,080 Climbing Houston Center
10:26PM 31.0347 -94.1103 65° Northeast 501 577 32,900 960 Climbing Houston Center
10:27PM 31.0967 -93.9603 64° Northeast 512 589 33,900 840 Climbing Houston Center
10:28PM 31.1528 -93.8247 64° Northeast 523 602 34,700 900 Climbing Houston Center
10:29PM 31.2133 -93.6728 65° Northeast 519 597 35,800 1,080 Climbing Houston Center
10:30PM 31.2811 -93.5050 65° Northeast 516 594 37,000 1,140 Climbing Houston Center
10:31PM 31.3411 -93.3544 65° Northeast 512 589 38,200 1,200 Climbing Houston Center
10:32PM 31.4069 -93.1853 65° Northeast 518 596 39,500 1,200 Climbing Houston Center
10:33PM 31.4658 -93.0347 65° Northeast 512 589 40,700 720 Climbing Houston Center
10:34PM 31.5247 -92.8889 65° Northeast 500 575 41,000 120 Climbing Houston Center
10:35PM 31.5833 -92.7389 65° Northeast 505 581 41,000  Level Houston Center
10:36PM 31.6422 -92.5886 65° Northeast 508 585 41,000  Level Houston Center
10:37PM 31.7000 -92.4367 66° East 509 586 41,000  Level Houston Center
10:38PM 31.7575 -92.2858 66° East 508 585 41,000  Level Houston Center
10:39PM 31.8156 -92.1339 66° East 509 586 41,000  Level Houston Center
10:40PM 31.8703 -91.9889 66° East 508 585 41,000  Level Houston Center
10:41PM 31.9289 -91.8369 66° East 509 586 41,000  Level Houston Center
10:42PM 31.9978 -91.6544 66° East 508 585 41,000  Level Houston Center
10:43PM 32.0553 -91.5014 66° East 510 587 41,000  Level Houston Center
10:44PM 32.1108 -91.3486 67° East 508 585 41,000  Level Houston Center
10:45PM 32.1686 -91.1964 66° East 508 585 41,000  Level Houston Center
10:46PM 32.2253 -91.0428 66° East 509 586 41,000  Level Houston Center
10:47PM 32.2831 -90.8908 66° East 509 586 41,000  Level Houston Center
10:48PM 32.3392 -90.7353 67° East 510 587 41,000  Level Houston Center
10:49PM 32.3958 -90.5814 66° East 510 587 41,000  Level Houston Center
10:50PM 32.4522 -90.4278 66° East 510 587 41,000  Level Houston Center
10:51PM 32.5086 -90.2733 67° East 510 587 41,000  Level Houston Center
10:52PM 32.5700 -90.1022 67° East 508 585 41,000  Level Houston Center
10:53PM 32.6261 -89.9483 67° East 508 585 41,000  Level Houston Center
10:55PM 32.6850 -89.7675 69° East 499 574 41,000  Level Memphis Center
10:56PM 32.7386 -89.6239 66° East 508 585 41,000  Level Memphis Center
10:57PM 32.7939 -89.4700 67° East 508 585 41,000  Level Memphis Center
10:58PM 32.8492 -89.3186 66° East 503 579 41,000  Level Memphis Center
10:59PM 32.9042 -89.1622 67° East 503 579 41,000  Level Memphis Center
11:00PM 32.9589 -89.0078 67° East 495 570 41,000  Level Memphis Center
11:01PM 33.0114 -88.8536 68° East 495 570 41,000  Level Memphis Center
11:02PM 33.0678 -88.6964 67° East 502 578 41,000  Level Memphis Center
11:03PM 33.1200 -88.5442 68° East 502 578 41,000  Level Memphis Center
11:04PM 33.1778 -88.3717 68° East 502 578 41,000  Level Memphis Center
11:06PM 33.2933 -88.0300 68° East 500 575 41,000  Level Atlanta Center
11:07PM 33.3442 -87.8756 68° East 500 575 41,000  Level Atlanta Center
11:08PM 33.3950 -87.7161 69° East 500 575 41,000  Level Atlanta Center
11:09PM 33.4497 -87.5617 67° East 500 575 41,000  Level Atlanta Center
11:10PM 33.5019 -87.4019 69° East 500 575 41,000  Level Atlanta Center
11:11PM 33.5522 -87.2442 69° East 501 577 41,000  Level Atlanta Center
11:12PM 33.6064 -87.0842 68° East 501 577 41,000  Level Atlanta Center
11:13PM 33.6583 -86.9239 69° East 501 577 41,000  Level Atlanta Center
11:14PM 33.7078 -86.7631 70° East 507 583 41,000  Level Atlanta Center
11:15PM 33.7508 -86.6022 72° East 502 578 41,000  Level Atlanta Center
11:16PM 33.7981 -86.4436 70° East 502 578 41,000  Level Atlanta Center
11:17PM 33.8447 -86.2822 71° East 502 578 41,000  Level Atlanta Center
11:18PM 33.8917 -86.1158 71° East 502 578 41,000  Level Atlanta Center
11:19PM 33.9358 -85.9567 71° East 502 578 41,000  Level Atlanta Center
11:20PM 33.9886 -85.7800 70° East 502 578 41,000  Level Atlanta Center
11:21PM 34.0325 -85.6181 72° East 497 572 41,000  Level Atlanta Center
11:22PM 34.0761 -85.4558 72° East 502 578 41,000  Level Atlanta Center
11:23PM 34.1197 -85.2908 72° East 502 578 41,000  Level Atlanta Center
11:24PM 34.1653 -85.1258 72° East 507 583 41,000  Level Atlanta Center
11:25PM 34.2144 -84.9658 70° East 507 583 41,000  Level Atlanta Center
11:26PM 34.2572 -84.8178 71° East 507 583 41,000  Level Atlanta Center
11:27PM 34.3311 -84.6728 58° Northeast 501 577 41,000  Level Atlanta Center
11:28PM 34.4089 -84.5272 57° Northeast 508 585 41,000  Level Atlanta Center
11:29PM 34.4825 -84.3842 58° Northeast 508 585 41,000  Level Atlanta Center
11:30PM 34.5664 -84.2256 57° Northeast 508 585 41,000  Level Atlanta Center
11:31PM 34.6417 -84.0792 58° Northeast 508 585 41,000  Level Atlanta Center
11:32PM 34.7042 -83.9528 59° Northeast 497 572 41,000  Level Atlanta Center
11:33PM 34.7917 -83.7858 57° Northeast 514 592 41,000  Level Atlanta Center
11:34PM 34.8683 -83.6439 57° Northeast 514 592 41,000  Level Atlanta Center
11:35PM 34.9408 -83.4992 59° Northeast 514 592 41,000  Level Atlanta Center
11:36PM 35.0153 -83.3542 58° Northeast 508 585 41,000  Level Atlanta Center
11:37PM 35.0917 -83.2061 58° Northeast 503 579 41,000  Level Atlanta Center
11:38PM 35.1656 -83.0606 58° Northeast 503 579 41,000  Level Atlanta Center
11:39PM 35.2394 -82.9097 59° Northeast 508 585 41,000  Level Atlanta Center
11:40PM 35.3131 -82.7686 57° Northeast 503 579 41,000  Level Atlanta Center
11:41PM 35.3867 -82.6222 58° Northeast 503 579 41,000  Level Atlanta Center
11:42PM 35.4622 -82.4758 58° Northeast 503 579 41,000 -420 Level Atlanta Center
11:43PM 35.5272 -82.3469 58° Northeast 498 573 40,200 -1,800 Descending Atlanta Center
11:44PM 35.6000 -82.1972 59° Northeast 498 573 37,400 -2,700 Descending Atlanta Center
11:45PM 35.6689 -82.0550 59° Northeast 498 573 34,800 -2,700 Descending Atlanta Center
11:46PM 35.7394 -81.9128 59° Northeast 492 566 32,100 -2,700 Descending Atlanta Center
11:47PM 35.8139 -81.7647 58° Northeast 497 572 29,400 -2,700 Descending Atlanta Center
11:48PM 35.8922 -81.6061 59° Northeast 498 573 26,800 -2,580 Descending Atlanta Center
11:49PM 35.9583 -81.4708 59° Northeast 478 550 24,300 -2,460 Descending Atlanta Center
11:50PM 36.0181 -81.3381 61° Northeast 453 521 21,900 -2,400 Descending Atlanta Center
11:51PM 36.0231 -81.1914 88° East 417 480 19,600 -2,340 Descending Atlanta Center
11:52PM 36.0261 -81.0503 88° East 417 480 17,300 -2,400 Descending Atlanta Center
11:53PM 36.0289 -80.9142 89° East 404 465 14,900 -2,100 Descending Atlanta Center
11:54PM 36.0303 -80.8011 89° East 388 447 13,100 -1,020 Descending Atlanta Center
11:55PM 36.0331 -80.6725 88° East 377 434 12,900 -120 Descending Atlanta Center
11:56PM 36.0339 -80.5544 89° East 354 407 12,900 -600 Level Atlanta Center
11:57PM 36.0367 -80.4361 88° East 330 380 11,800 -1,620 Descending Atlanta Center
11:58PM 36.0378 -80.3308 89° East 316 364 9,700 -2,160 Descending Atlanta Center
11:59PM 36.0100 -80.2397 111° Southeast 294 338 7,500 -2,340 Descending Atlanta Center
12:00AM 35.9864 -80.1586 110° East 288 331 5,100 -1,800 Descending Atlanta Center
12:01AM 36.0153 -80.0803 65° Northeast 246 283 3,900 -1,200 Descending Atlanta Center
12:03AM 36.1000 -79.9333 68° East  Level FlightAware Approximate
12:10AM 36.1013 -79.9411 68° East  Level Estimated
12:11AM 36.1000 -79.9333 68° East  Level FlightAware Approximate
12:12AM 36.1013 -79.9411 68° East  Level Estimated